createdAt,value
2022-12-24T00:01:36.275Z,0.55
2022-12-24T00:04:04.657Z,0.60
2022-12-24T00:06:32.912Z,0.60
2022-12-24T00:09:01.123Z,0.55
2022-12-24T00:11:29.383Z,0.50
2022-12-24T00:13:57.614Z,0.50
2022-12-24T00:16:27.348Z,0.60
2022-12-24T00:18:55.631Z,0.40
2022-12-24T00:21:23.813Z,0.60
2022-12-24T00:23:52.043Z,0.57
2022-12-24T00:26:20.297Z,0.40
2022-12-24T00:28:48.547Z,0.40
2022-12-24T00:31:19.607Z,0.40
2022-12-24T00:33:49.760Z,0.60
2022-12-24T00:36:18.483Z,0.50
2022-12-24T00:38:47.374Z,0.50
2022-12-24T00:41:25.814Z,0.88
2022-12-24T00:43:56.359Z,0.50
2022-12-24T00:46:25.023Z,0.80
2022-12-24T00:48:55.332Z,0.60
2022-12-24T00:51:23.787Z,0.55
2022-12-24T00:53:52.827Z,0.50
2022-12-24T00:56:21.414Z,0.63
2022-12-24T00:58:49.724Z,0.57
2022-12-24T01:01:18.542Z,0.50
2022-12-24T01:03:46.974Z,0.60
2022-12-24T01:06:17.408Z,0.50
2022-12-24T01:08:47.431Z,0.50
2022-12-24T01:11:15.640Z,0.50
2022-12-24T01:13:43.878Z,0.50
2022-12-24T01:16:17.117Z,0.57
2022-12-24T01:18:45.417Z,0.50
2022-12-24T01:21:14.049Z,0.82
2022-12-24T01:23:43.804Z,0.43
2022-12-24T01:26:13.159Z,0.50
2022-12-24T01:28:41.621Z,0.47
2022-12-24T01:31:14.512Z,0.60
2022-12-24T01:33:42.801Z,0.50
2022-12-24T01:36:12.036Z,0.50
2022-12-24T01:38:40.652Z,0.57
2022-12-24T01:41:33.805Z,0.50
2022-12-24T01:44:29.882Z,0.50
2022-12-24T01:47:10.251Z,0.40
2022-12-24T01:49:40.725Z,0.50
2022-12-24T01:52:12.169Z,0.40
2022-12-24T01:54:45.147Z,0.50
2022-12-24T01:57:19.323Z,0.50
2022-12-24T01:59:51.344Z,0.50
2022-12-24T02:02:21.280Z,0.50
2022-12-24T02:04:55.804Z,0.68
2022-12-24T02:07:24.261Z,0.50
2022-12-24T02:09:57.021Z,0.50
2022-12-24T02:12:28.180Z,0.40
2022-12-24T02:14:56.839Z,0.55
2022-12-24T02:17:30.489Z,0.50
2022-12-24T02:20:33.494Z,0.52
2022-12-24T02:23:24.287Z,0.40
2022-12-24T02:26:08.482Z,0.60
2022-12-24T02:28:56.829Z,0.43
2022-12-24T02:31:33.108Z,0.47
2022-12-24T02:34:08.628Z,0.50
2022-12-24T02:36:40.878Z,0.70
2022-12-24T02:39:13.450Z,0.60
2022-12-24T02:42:02.567Z,0.52
2022-12-24T02:44:35.723Z,0.50
2022-12-24T02:47:07.620Z,0.50
2022-12-24T02:49:36.742Z,0.40
2022-12-24T02:52:05.601Z,0.57
2022-12-24T02:54:34.673Z,0.40
2022-12-24T02:57:15.400Z,0.60
2022-12-24T03:00:00.156Z,0.52
2022-12-24T03:02:46.796Z,0.70
2022-12-24T03:05:25.396Z,0.60
2022-12-24T03:08:03.573Z,0.60
2022-12-24T03:10:38.484Z,0.50
2022-12-24T03:13:12.353Z,0.55
2022-12-24T03:15:42.150Z,0.60
2022-12-24T03:18:15.028Z,0.57
2022-12-24T03:20:47.037Z,0.50
2022-12-24T03:23:16.034Z,0.65
2022-12-24T03:25:45.894Z,0.57
2022-12-24T03:28:16.801Z,0.70
2022-12-24T03:30:47.400Z,0.50
2022-12-24T03:33:18.010Z,0.60
2022-12-24T03:35:46.832Z,0.60
2022-12-24T03:38:15.059Z,0.45
2022-12-24T03:40:43.292Z,0.70
2022-12-24T03:43:11.626Z,0.60
2022-12-24T03:45:39.900Z,0.60
2022-12-24T03:48:08.325Z,0.70
2022-12-24T03:50:37.947Z,0.55
2022-12-24T03:53:06.137Z,0.60
2022-12-24T03:55:34.408Z,0.70
2022-12-24T03:58:02.806Z,0.60
2022-12-24T04:00:31.154Z,0.50
2022-12-24T04:02:59.379Z,0.80
2022-12-24T04:05:27.683Z,0.50
2022-12-24T04:07:57.305Z,0.50
2022-12-24T04:10:25.543Z,0.70
2022-12-24T04:12:53.795Z,0.50
2022-12-24T04:15:22.051Z,0.57
2022-12-24T04:17:50.240Z,0.50
2022-12-24T04:20:18.569Z,0.50
2022-12-24T04:22:46.752Z,0.55
2022-12-24T04:25:16.418Z,0.50
2022-12-24T04:27:44.729Z,0.60
2022-12-24T04:30:13.301Z,0.60
2022-12-24T04:32:41.511Z,0.50
2022-12-24T04:35:10.580Z,0.52
2022-12-24T04:37:38.804Z,0.60
2022-12-24T04:40:08.440Z,0.40
2022-12-24T04:42:38.725Z,0.65
2022-12-24T04:45:07.903Z,0.80
2022-12-24T04:47:36.119Z,0.60
2022-12-24T04:50:04.688Z,0.68
2022-12-24T04:52:33.023Z,0.73
2022-12-24T04:55:01.275Z,0.45
2022-12-24T04:57:29.470Z,1.02
2022-12-24T04:59:59.200Z,0.55
2022-12-24T05:02:27.942Z,0.50
2022-12-24T05:04:56.304Z,0.80
2022-12-24T05:07:24.615Z,0.63
2022-12-24T05:09:52.920Z,0.60
2022-12-24T05:12:21.226Z,1.15
2022-12-24T05:14:49.467Z,0.60
2022-12-24T05:17:19.102Z,0.60
2022-12-24T05:19:47.314Z,0.52
2022-12-24T05:22:32.949Z,0.70
2022-12-24T05:25:18.596Z,0.55
2022-12-24T05:27:51.039Z,0.57
2022-12-24T05:30:20.076Z,0.50
2022-12-24T05:32:49.685Z,0.50
2022-12-24T05:35:18.033Z,0.60
2022-12-24T05:37:47.094Z,0.60
2022-12-24T05:40:15.563Z,0.60
2022-12-24T05:42:43.799Z,0.65
2022-12-24T05:45:12.059Z,0.60
2022-12-24T05:47:43.480Z,0.57
2022-12-24T05:50:13.791Z,0.77
2022-12-24T05:52:42.018Z,0.73
2022-12-24T05:55:11.128Z,0.68
2022-12-24T05:57:41.516Z,0.75
2022-12-24T06:00:10.958Z,0.60
2022-12-24T06:02:41.755Z,0.70
2022-12-24T06:05:10.734Z,0.80
2022-12-24T06:07:40.359Z,0.77
2022-12-24T06:10:10.244Z,0.70
2022-12-24T06:12:38.485Z,0.90
2022-12-24T06:15:08.004Z,0.60
2022-12-24T06:17:36.248Z,0.55
2022-12-24T06:20:05.140Z,0.82
2022-12-24T06:22:33.304Z,0.65
2022-12-24T06:25:02.889Z,0.50
2022-12-24T06:27:31.746Z,0.60
2022-12-24T06:30:00.047Z,0.60
2022-12-24T06:32:28.263Z,0.70
2022-12-24T06:34:56.477Z,0.57
2022-12-24T06:37:24.756Z,0.73
2022-12-24T06:39:52.967Z,0.80
2022-12-24T06:42:24.292Z,0.68
2022-12-24T06:44:52.512Z,0.80
2022-12-24T06:47:20.776Z,0.70
2022-12-24T06:49:48.995Z,0.73
2022-12-24T06:52:17.152Z,0.60
2022-12-24T06:54:45.317Z,0.75
2022-12-24T06:57:13.484Z,0.85
2022-12-24T06:59:42.958Z,0.60
2022-12-24T07:02:11.341Z,0.77
2022-12-24T07:04:39.581Z,0.68
2022-12-24T07:07:07.845Z,0.80
2022-12-24T07:09:36.154Z,0.60
2022-12-24T07:12:04.829Z,1.52
2022-12-24T07:14:33.640Z,0.77
2022-12-24T07:17:03.405Z,1.15
2022-12-24T07:19:31.869Z,0.57
2022-12-24T07:22:00.105Z,0.60
2022-12-24T07:24:28.388Z,0.80
2022-12-24T07:26:56.606Z,0.90
2022-12-24T07:29:24.788Z,0.60
2022-12-24T07:31:53.144Z,0.60
2022-12-24T07:34:22.785Z,0.60
2022-12-24T07:36:51.033Z,0.63
2022-12-24T07:39:19.317Z,0.65
2022-12-24T07:41:47.620Z,0.70
2022-12-24T07:44:16.161Z,0.80
2022-12-24T07:46:44.672Z,1.00
2022-12-24T07:49:13.042Z,1.02
2022-12-24T07:51:42.796Z,1.13
2022-12-24T07:54:11.160Z,1.00
2022-12-24T07:56:39.477Z,0.80
2022-12-24T07:59:07.723Z,1.02
2022-12-24T08:01:36.186Z,0.95
2022-12-24T08:04:04.496Z,1.35
2022-12-24T08:06:32.915Z,1.15
2022-12-24T08:09:02.409Z,0.80
2022-12-24T08:11:30.754Z,1.00
2022-12-24T08:13:59.038Z,0.90
2022-12-24T08:16:27.737Z,0.82
2022-12-24T08:18:56.345Z,1.00
2022-12-24T08:21:24.686Z,1.17
2022-12-24T08:23:53.165Z,0.90
2022-12-24T08:26:22.960Z,0.85
2022-12-24T08:28:51.196Z,0.80
2022-12-24T08:31:19.542Z,0.80
2022-12-24T08:33:47.963Z,0.80
2022-12-24T08:36:16.359Z,0.70
2022-12-24T08:38:44.723Z,0.70
2022-12-24T08:41:12.971Z,1.00
2022-12-24T08:43:42.629Z,0.82
2022-12-24T08:46:11.759Z,0.93
2022-12-24T08:48:40.081Z,0.95
2022-12-24T08:51:09.680Z,0.80
2022-12-24T08:53:38.123Z,0.73
2022-12-24T08:56:09.231Z,0.98
2022-12-24T08:58:37.548Z,0.73
2022-12-24T09:01:14.866Z,0.90
2022-12-24T09:03:43.637Z,1.10
2022-12-24T09:06:12.667Z,0.68
2022-12-24T09:08:41.198Z,0.80
2022-12-24T09:11:12.271Z,0.82
2022-12-24T09:13:40.945Z,0.65
2022-12-24T09:16:10.008Z,0.85
2022-12-24T09:18:42.120Z,0.63
2022-12-24T09:21:14.482Z,0.80
2022-12-24T09:23:44.499Z,0.90
2022-12-24T09:26:16.072Z,0.90
2022-12-24T09:28:44.630Z,0.88
2022-12-24T09:31:14.266Z,0.90
2022-12-24T09:34:25.158Z,1.10
2022-12-24T09:37:19.860Z,0.90
2022-12-24T09:39:48.071Z,0.90
2022-12-24T09:42:26.240Z,1.02
2022-12-24T09:44:59.964Z,0.77
2022-12-24T09:47:34.403Z,0.57
2022-12-24T09:50:06.031Z,0.80
2022-12-24T09:52:39.810Z,1.00
2022-12-24T09:55:21.694Z,1.00
2022-12-24T09:57:51.672Z,0.70
2022-12-24T10:00:24.319Z,0.80
2022-12-24T10:02:53.207Z,0.70
2022-12-24T10:05:37.866Z,0.80
2022-12-24T10:08:18.341Z,0.90
2022-12-24T10:10:54.648Z,0.80
2022-12-24T10:13:38.181Z,1.02
2022-12-24T10:16:15.243Z,0.80
2022-12-24T10:18:50.061Z,0.80
2022-12-24T10:21:27.608Z,0.82
2022-12-24T10:24:02.939Z,0.90
2022-12-24T10:26:38.354Z,0.88
2022-12-24T10:29:14.405Z,1.00
2022-12-24T10:31:52.362Z,0.70
2022-12-24T10:34:24.509Z,0.95
2022-12-24T10:36:54.186Z,0.80
2022-12-24T10:39:25.328Z,0.73
2022-12-24T10:41:57.729Z,0.77
2022-12-24T10:44:29.155Z,0.88
2022-12-24T10:46:57.631Z,0.75
2022-12-24T10:49:33.631Z,0.80
2022-12-24T10:52:06.994Z,1.13
2022-12-24T10:54:39.537Z,1.27
2022-12-24T10:57:26.276Z,0.70
2022-12-24T10:59:56.263Z,1.08
2022-12-24T11:02:29.822Z,0.82
2022-12-24T11:05:00.253Z,0.90
2022-12-24T11:07:31.914Z,0.80
2022-12-24T11:10:02.238Z,0.80
2022-12-24T11:12:33.308Z,0.70
2022-12-24T11:15:04.831Z,1.10
2022-12-24T11:17:33.853Z,1.00
2022-12-24T11:20:04.040Z,0.98
2022-12-24T11:22:35.052Z,0.90
2022-12-24T11:25:07.494Z,1.00
2022-12-24T11:27:44.310Z,1.42
2022-12-24T11:30:31.434Z,1.00
2022-12-24T11:33:20.688Z,1.23
2022-12-24T11:35:55.836Z,0.80
2022-12-24T11:38:26.952Z,0.80
2022-12-24T11:41:08.062Z,1.38
2022-12-24T11:43:45.478Z,0.80
2022-12-24T11:46:17.308Z,1.33
2022-12-24T11:48:45.772Z,1.02
2022-12-24T11:51:25.656Z,0.70
2022-12-24T11:54:03.286Z,1.10
2022-12-24T11:56:37.267Z,1.15
2022-12-24T11:59:15.746Z,0.85
2022-12-24T12:01:52.130Z,0.70
2022-12-24T12:04:23.211Z,0.90
2022-12-24T12:06:55.852Z,0.80
2022-12-24T12:09:29.140Z,1.15
2022-12-24T12:12:02.734Z,0.70
2022-12-24T12:14:35.283Z,0.90
2022-12-24T12:17:09.706Z,0.82
2022-12-24T12:19:43.545Z,0.98
2022-12-24T12:22:22.904Z,0.80
2022-12-24T12:24:56.205Z,0.95
2022-12-24T12:27:31.820Z,0.88
2022-12-24T12:30:03.287Z,1.15
2022-12-24T12:32:43.562Z,1.00
2022-12-24T12:35:20.367Z,0.70
2022-12-24T12:37:57.142Z,0.88
2022-12-24T12:40:39.745Z,0.80
2022-12-24T12:43:21.696Z,0.93
2022-12-24T12:45:56.169Z,0.77
2022-12-24T12:48:54.592Z,1.30
2022-12-24T12:51:33.492Z,1.20
2022-12-24T12:54:31.243Z,1.02
2022-12-24T12:57:07.056Z,1.45
2022-12-24T12:59:39.185Z,1.38
2022-12-24T13:02:26.365Z,1.00
2022-12-24T13:05:24.310Z,1.02
2022-12-24T13:08:16.602Z,0.90
2022-12-24T13:11:02.411Z,1.30
2022-12-24T13:13:54.000Z,1.40
2022-12-24T13:16:50.446Z,1.15
2022-12-24T13:19:37.988Z,1.08
2022-12-24T13:22:14.841Z,1.00
2022-12-24T13:24:51.734Z,1.23
2022-12-24T13:27:24.643Z,1.00
2022-12-24T13:29:56.934Z,1.10
2022-12-24T13:32:51.853Z,1.10
2022-12-24T13:35:38.247Z,1.20
2022-12-24T13:38:35.732Z,1.17
2022-12-24T13:41:42.092Z,2.15
2022-12-24T13:44:24.007Z,1.00
2022-12-24T13:46:59.867Z,0.93
2022-12-24T13:49:35.659Z,1.05
2022-12-24T13:52:09.424Z,1.05
2022-12-24T13:54:41.325Z,1.00
2022-12-24T13:57:28.074Z,1.10
2022-12-24T14:00:00.524Z,1.15
2022-12-24T14:02:37.263Z,1.00
2022-12-24T14:05:10.269Z,1.10
2022-12-24T14:07:48.614Z,1.30
2022-12-24T14:10:24.596Z,1.00
2022-12-24T14:12:54.566Z,0.90
2022-12-24T14:16:03.112Z,1.00
2022-12-24T14:18:38.449Z,0.90
2022-12-24T14:21:08.290Z,1.10
2022-12-24T14:23:50.678Z,1.40
2022-12-24T14:26:21.660Z,1.02
2022-12-24T14:28:56.467Z,1.10
2022-12-24T14:31:25.084Z,1.13
2022-12-24T14:34:07.974Z,1.00
2022-12-24T14:36:39.275Z,1.00
2022-12-24T14:39:10.375Z,0.90
2022-12-24T14:41:48.834Z,0.93
2022-12-24T14:44:30.906Z,0.85
2022-12-24T14:47:15.706Z,0.90
2022-12-24T14:50:02.218Z,1.02
2022-12-24T14:53:04.087Z,1.00
2022-12-24T14:55:32.859Z,0.90
2022-12-24T14:58:23.889Z,0.80
2022-12-24T15:00:53.520Z,0.90
2022-12-24T15:03:24.952Z,1.20
2022-12-24T15:05:57.484Z,1.00
2022-12-24T15:08:31.664Z,0.95
2022-12-24T15:11:04.270Z,1.00
2022-12-24T15:13:37.290Z,1.00
2022-12-24T15:16:09.062Z,0.80
2022-12-24T15:18:43.204Z,1.10
2022-12-24T15:21:21.127Z,0.85
2022-12-24T15:23:51.192Z,0.98
2022-12-24T15:26:25.294Z,0.80
2022-12-24T15:29:02.292Z,0.95
2022-12-24T15:31:32.496Z,0.90
2022-12-24T15:34:01.389Z,1.10
2022-12-24T15:36:34.009Z,1.05
2022-12-24T15:39:07.311Z,1.00
2022-12-24T15:41:59.828Z,0.90
2022-12-24T15:44:29.779Z,0.98
2022-12-24T15:47:00.954Z,1.13
2022-12-24T15:49:31.558Z,1.10
2022-12-24T15:52:06.981Z,0.88
2022-12-24T15:54:35.474Z,0.82
2022-12-24T15:57:15.611Z,1.10
2022-12-24T15:59:44.504Z,1.10
2022-12-24T16:02:41.442Z,1.20
2022-12-24T16:05:25.501Z,1.08
2022-12-24T16:08:23.017Z,0.95
2022-12-24T16:10:55.118Z,0.93
2022-12-24T16:13:26.401Z,1.20
2022-12-24T16:15:57.136Z,1.13
2022-12-24T16:18:27.654Z,1.00
2022-12-24T16:20:57.812Z,0.90
2022-12-24T16:23:31.981Z,0.98
2022-12-24T16:26:00.546Z,1.20
2022-12-24T16:28:30.516Z,1.30
2022-12-24T16:30:59.043Z,1.10
2022-12-24T16:33:27.356Z,1.20
2022-12-24T16:35:56.231Z,1.08
2022-12-24T16:38:24.594Z,0.98
2022-12-24T16:40:54.240Z,1.25
2022-12-24T16:43:39.760Z,1.50
2022-12-24T16:46:08.864Z,1.30
2022-12-24T16:48:38.853Z,1.20
2022-12-24T16:51:07.252Z,1.10
2022-12-24T16:53:35.495Z,1.30
2022-12-24T16:56:05.614Z,1.33
2022-12-24T16:58:33.776Z,1.38
2022-12-24T17:01:08.201Z,1.63
2022-12-24T17:03:37.265Z,1.48
2022-12-24T17:06:07.590Z,1.42
2022-12-24T17:08:36.413Z,1.55
2022-12-24T17:11:06.210Z,1.42
2022-12-24T17:13:34.342Z,1.20
2022-12-24T17:16:03.041Z,1.50
2022-12-24T17:18:31.447Z,2.20
2022-12-24T17:21:01.343Z,1.50
2022-12-24T17:23:29.635Z,1.70
2022-12-24T17:25:58.004Z,1.50
2022-12-24T17:28:27.757Z,1.88
2022-12-24T17:30:57.387Z,1.33
2022-12-24T17:33:25.971Z,1.60
2022-12-24T17:35:54.233Z,1.85
2022-12-24T17:38:22.473Z,1.60
2022-12-24T17:40:50.723Z,2.00
2022-12-24T17:43:18.957Z,1.73
2022-12-24T17:45:48.475Z,1.90
2022-12-24T17:48:16.730Z,1.60
2022-12-24T17:50:45.107Z,1.90
2022-12-24T17:53:13.805Z,1.90
2022-12-24T17:55:42.949Z,1.65
2022-12-24T17:58:11.451Z,1.70
2022-12-24T18:00:40.207Z,2.03
2022-12-24T18:03:13.867Z,2.15
2022-12-24T18:05:42.513Z,1.85
2022-12-24T18:08:10.823Z,1.70
2022-12-24T18:10:39.133Z,1.90
2022-12-24T18:13:07.604Z,1.85
2022-12-24T18:15:37.585Z,2.10
2022-12-24T18:18:07.434Z,1.98
2022-12-24T18:20:44.418Z,2.00
2022-12-24T18:23:14.925Z,1.85
2022-12-24T18:25:43.104Z,1.88
2022-12-24T18:28:11.666Z,1.70
2022-12-24T18:30:39.952Z,2.00
2022-12-24T18:33:08.248Z,2.03
2022-12-24T18:35:37.994Z,1.63
2022-12-24T18:38:06.359Z,1.92
2022-12-24T18:40:37.995Z,1.90
2022-12-24T18:43:06.725Z,2.00
2022-12-24T18:45:35.028Z,2.25
2022-12-24T18:48:03.339Z,2.35
2022-12-24T18:50:31.567Z,2.58
2022-12-24T18:53:01.220Z,2.35
2022-12-24T18:55:29.627Z,2.38
2022-12-24T18:57:57.835Z,2.50
2022-12-24T19:00:26.340Z,2.08
2022-12-24T19:02:55.111Z,1.70
2022-12-24T19:05:23.558Z,2.30
2022-12-24T19:07:51.981Z,2.20
2022-12-24T19:10:21.827Z,1.80
2022-12-24T19:12:50.247Z,2.30
2022-12-24T19:15:18.876Z,1.95
2022-12-24T19:17:47.167Z,1.98
2022-12-24T19:20:15.552Z,2.03
2022-12-24T19:22:43.791Z,2.03
2022-12-24T19:25:12.159Z,1.90
2022-12-24T19:27:41.835Z,1.80
2022-12-24T19:30:11.028Z,2.13
2022-12-24T19:32:39.524Z,2.05
2022-12-24T19:35:08.293Z,2.03
2022-12-24T19:37:36.615Z,2.20
2022-12-24T19:40:05.724Z,2.00
2022-12-24T19:42:34.037Z,2.30
2022-12-24T19:45:03.717Z,1.95
2022-12-24T19:47:31.959Z,2.20
2022-12-24T19:50:00.460Z,2.13
2022-12-24T19:52:28.695Z,2.40
2022-12-24T19:54:56.952Z,2.20
2022-12-24T19:57:25.248Z,2.28
2022-12-24T19:59:53.625Z,2.35
2022-12-24T20:02:23.497Z,2.10
2022-12-24T20:04:52.242Z,2.53
2022-12-24T20:07:20.594Z,2.13
2022-12-24T20:09:48.941Z,2.00
2022-12-24T20:12:17.308Z,2.33
2022-12-24T20:14:45.745Z,1.90
2022-12-24T20:17:14.886Z,2.40
2022-12-24T20:19:44.513Z,1.90
2022-12-24T20:22:13.179Z,2.00
2022-12-24T20:24:41.390Z,2.28
2022-12-24T20:27:09.657Z,2.60
2022-12-24T20:29:37.851Z,2.47
2022-12-24T20:32:07.010Z,2.40
2022-12-24T20:34:36.640Z,2.03
2022-12-24T20:37:06.399Z,2.25
2022-12-24T20:39:34.590Z,2.30
2022-12-24T20:42:03.718Z,2.05
2022-12-24T20:44:31.916Z,2.50
2022-12-24T20:47:00.180Z,2.28
2022-12-24T20:49:28.530Z,2.58
2022-12-24T20:51:56.764Z,2.30
2022-12-24T20:54:26.325Z,2.10
2022-12-24T20:56:57.896Z,2.20
2022-12-24T20:59:27.344Z,2.60
2022-12-24T21:01:55.929Z,2.13
2022-12-24T21:04:24.795Z,2.50
2022-12-24T21:06:53.102Z,2.35
2022-12-24T21:09:21.350Z,2.40
2022-12-24T21:12:09.471Z,2.30
2022-12-24T21:14:37.750Z,2.40
2022-12-24T21:17:09.418Z,2.25
2022-12-24T21:19:40.294Z,2.60
2022-12-24T21:22:08.710Z,1.98
2022-12-24T21:24:36.945Z,2.83
2022-12-24T21:27:06.516Z,2.35
2022-12-24T21:29:34.846Z,2.35
2022-12-24T21:32:03.064Z,2.72
2022-12-24T21:34:31.444Z,2.47
2022-12-24T21:36:59.656Z,2.25
2022-12-24T21:39:27.900Z,2.13
2022-12-24T21:41:56.172Z,2.50
2022-12-24T21:44:25.785Z,2.15
2022-12-24T21:46:53.997Z,2.60
2022-12-24T21:49:39.535Z,2.13
2022-12-24T21:52:07.787Z,2.33
2022-12-24T21:54:35.056Z,2.17
2022-12-24T21:57:22.755Z,2.40
2022-12-24T21:59:53.538Z,2.17
2022-12-24T22:02:26.671Z,2.40
2022-12-24T22:04:55.518Z,2.33
2022-12-24T22:07:43.378Z,2.47
2022-12-24T22:10:30.259Z,2.38
2022-12-24T22:13:00.313Z,2.30
2022-12-24T22:15:30.412Z,2.67
2022-12-24T22:17:58.613Z,2.38
2022-12-24T22:20:27.105Z,2.20
2022-12-24T22:22:55.446Z,2.55
2022-12-24T22:25:23.755Z,2.63
2022-12-24T22:27:52.159Z,2.25
2022-12-24T22:30:20.686Z,2.95
2022-12-24T22:32:50.343Z,2.25
2022-12-24T22:35:18.733Z,2.40
2022-12-24T22:37:46.991Z,2.22
2022-12-24T22:40:15.425Z,2.05
2022-12-24T22:42:43.720Z,2.10
2022-12-24T22:45:18.380Z,2.30
2022-12-24T22:47:48.517Z,2.10
2022-12-24T22:50:18.269Z,2.30
2022-12-24T22:52:46.514Z,2.33
2022-12-24T22:55:14.843Z,2.35
2022-12-24T22:57:43.151Z,2.10
2022-12-24T23:00:15.195Z,2.33
2022-12-24T23:02:43.849Z,2.30
2022-12-24T23:05:15.380Z,2.28
2022-12-24T23:07:45.100Z,2.20
2022-12-24T23:10:13.353Z,2.25
2022-12-24T23:12:58.806Z,2.03
2022-12-24T23:15:27.053Z,2.17
2022-12-24T23:17:55.324Z,2.30
2022-12-24T23:20:23.548Z,2.25
2022-12-24T23:22:53.191Z,2.40
2022-12-24T23:25:21.450Z,1.90
2022-12-24T23:27:50.025Z,2.35
2022-12-24T23:30:18.456Z,1.98
2022-12-24T23:32:46.718Z,2.08
2022-12-24T23:35:14.951Z,2.20
2022-12-24T23:37:43.266Z,2.13
2022-12-24T23:40:13.510Z,2.00
2022-12-24T23:42:41.740Z,2.60
2022-12-24T23:45:10.956Z,2.03
2022-12-24T23:47:39.224Z,2.20
2022-12-24T23:50:08.768Z,2.28
2022-12-24T23:52:37.048Z,2.00
2022-12-24T23:55:07.177Z,2.58
2022-12-24T23:57:36.857Z,2.10
